sensor_id;sensor_type;location;lat;lon;timestamp;pressure;altitude;pressure_sealevel;temperature;humidity
58979;BME280;44763;50.464;30.612;2023-12-14T00:00:28;99673.66;;;0.56;100.00
58979;BME280;44763;50.464;30.612;2023-12-14T00:02:30;99663.67;;;0.55;100.00
58979;BME280;44763;50.464;30.612;2023-12-14T00:04:33;99655.14;;;0.43;100.00
58979;BME280;44763;50.464;30.612;2023-12-14T00:06:35;99642.86;;;0.36;100.00
58979;BME280;44763;50.464;30.612;2023-12-14T00:08:37;99654.77;;;0.37;100.00
58979;BME280;44763;50.464;30.612;2023-12-14T00:10:42;99650.86;;;0.38;100.00
58979;BME280;44763;50.464;30.612;2023-12-14T00:12:44;99647.21;;;0.36;100.00
58979;BME280;44763;50.464;30.612;2023-12-14T00:14:46;99645.44;;;0.31;100.00
58979;BME280;44763;50.464;30.612;2023-12-14T00:16:48;99626.06;;;0.24;100.00
58979;BME280;44763;50.464;30.612;2023-12-14T00:18:51;99637.36;;;0.35;100.00
58979;BME280;44763;50.464;30.612;2023-12-14T00:20:53;99649.70;;;0.35;100.00
58979;BME280;44763;50.464;30.612;2023-12-14T00:22:55;99638.52;;;0.37;100.00
58979;BME280;44763;50.464;30.612;2023-12-14T00:24:57;99632.39;;;0.39;100.00
58979;BME280;44763;50.464;30.612;2023-12-14T00:26:59;99630.39;;;0.33;100.00
58979;BME280;44763;50.464;30.612;2023-12-14T00:29:01;99627.19;;;0.28;100.00
58979;BME280;44763;50.464;30.612;2023-12-14T00:31:03;99626.55;;;0.27;100.00
58979;BME280;44763;50.464;30.612;2023-12-14T00:33:06;99622.27;;;0.28;100.00
58979;BME280;44763;50.464;30.612;2023-12-14T00:35:08;99633.34;;;0.27;100.00
58979;BME280;44763;50.464;30.612;2023-12-14T00:37:10;99629.13;;;0.25;100.00
58979;BME280;44763;50.464;30.612;2023-12-14T00:39:13;99622.92;;;0.25;100.00
58979;BME280;44763;50.464;30.612;2023-12-14T00:41:15;99619.73;;;0.25;100.00
58979;BME280;44763;50.464;30.612;2023-12-14T00:43:17;99615.11;;;0.24;100.00
58979;BME280;44763;50.464;30.612;2023-12-14T00:45:19;99609.20;;;0.26;100.00
58979;BME280;44763;50.464;30.612;2023-12-14T00:47:21;99620.16;;;0.26;100.00
58979;BME280;44763;50.464;30.612;2023-12-14T00:49:25;99620.83;;;0.25;100.00
58979;BME280;44763;50.464;30.612;2023-12-14T00:51:29;99612.73;;;0.23;100.00
58979;BME280;44763;50.464;30.612;2023-12-14T00:53:31;99594.00;;;0.19;100.00
58979;BME280;44763;50.464;30.612;2023-12-14T00:55:34;99605.65;;;0.18;100.00
58979;BME280;44763;50.464;30.612;2023-12-14T00:57:36;99597.90;;;0.17;100.00
58979;BME280;44763;50.464;30.612;2023-12-14T00:59:38;99582.67;;;0.15;100.00
58979;BME280;44763;50.464;30.612;2023-12-14T01:01:40;99589.44;;;0.14;100.00
58979;BME280;44763;50.464;30.612;2023-12-14T01:03:42;99577.87;;;0.12;100.00
58979;BME280;44763;50.464;30.612;2023-12-14T01:05:44;99572.73;;;0.10;100.00
58979;BME280;44763;50.464;30.612;2023-12-14T01:07:46;99590.56;;;0.11;100.00
58979;BME280;44763;50.464;30.612;2023-12-14T01:09:48;99576.96;;;0.15;100.00
58979;BME280;44763;50.464;30.612;2023-12-14T01:11:50;99574.09;;;0.15;100.00
58979;BME280;44763;50.464;30.612;2023-12-14T01:13:52;99579.11;;;0.16;100.00
58979;BME280;44763;50.464;30.612;2023-12-14T01:15:53;99571.27;;;0.16;100.00
58979;BME280;44763;50.464;30.612;2023-12-14T01:17:55;99584.84;;;0.14;100.00
58979;BME280;44763;50.464;30.612;2023-12-14T01:19:57;99587.86;;;0.16;100.00
58979;BME280;44763;50.464;30.612;2023-12-14T01:21:59;99579.69;;;0.17;100.00
58979;BME280;44763;50.464;30.612;2023-12-14T01:24:01;99569.34;;;0.18;100.00
58979;BME280;44763;50.464;30.612;2023-12-14T01:26:04;99576.23;;;0.17;100.00
58979;BME280;44763;50.464;30.612;2023-12-14T01:28:06;99566.89;;;0.16;100.00
58979;BME280;44763;50.464;30.612;2023-12-14T01:30:08;99573.20;;;0.08;100.00
58979;BME280;44763;50.464;30.612;2023-12-14T01:32:10;99569.73;;;0.08;100.00
58979;BME280;44763;50.464;30.612;2023-12-14T01:34:12;99570.70;;;0.07;100.00
58979;BME280;44763;50.464;30.612;2023-12-14T01:36:22;99568.09;;;0.07;100.00
58979;BME280;44763;50.464;30.612;2023-12-14T01:38:24;99559.11;;;0.08;100.00
58979;BME280;44763;50.464;30.612;2023-12-14T01:40:26;99557.14;;;0.06;100.00
58979;BME280;44763;50.464;30.612;2023-12-14T01:42:28;99552.81;;;0.06;100.00
58979;BME280;44763;50.464;30.612;2023-12-14T01:44:30;99539.41;;;0.05;100.00
58979;BME280;44763;50.464;30.612;2023-12-14T01:46:32;99532.33;;;0.04;100.00
58979;BME280;44763;50.464;30.612;2023-12-14T01:48:34;99541.90;;;0.03;100.00
58979;BME280;44763;50.464;30.612;2023-12-14T01:50:36;99524.33;;;0.04;100.00
58979;BME280;44763;50.464;30.612;2023-12-14T01:52:38;99522.46;;;0.03;100.00
58979;BME280;44763;50.464;30.612;2023-12-14T01:54:40;99525.77;;;0.02;100.00
58979;BME280;44763;50.464;30.612;2023-12-14T01:56:42;99514.17;;;-0.02;100.00
58979;BME280;44763;50.464;30.612;2023-12-14T01:58:44;99513.48;;;-0.02;100.00
58979;BME280;44763;50.464;30.612;2023-12-14T02:01:08;99492.00;;;-0.10;100.00
58979;BME280;44763;50.464;30.612;2023-12-14T02:03:17;99503.34;;;0.00;100.00
58979;BME280;44763;50.464;30.612;2023-12-14T02:05:20;99500.53;;;0.01;100.00
58979;BME280;44763;50.464;30.612;2023-12-14T02:07:23;99500.11;;;-0.05;100.00
58979;BME280;44763;50.464;30.612;2023-12-14T02:09:25;99509.29;;;-0.09;100.00
58979;BME280;44763;50.464;30.612;2023-12-14T02:11:28;99484.98;;;-0.11;100.00
58979;BME280;44763;50.464;30.612;2023-12-14T02:13:30;99483.15;;;-0.12;100.00
58979;BME280;44763;50.464;30.612;2023-12-14T02:15:32;99485.01;;;-0.09;100.00
58979;BME280;44763;50.464;30.612;2023-12-14T02:17:34;99477.57;;;-0.10;100.00
58979;BME280;44763;50.464;30.612;2023-12-14T02:19:37;99484.02;;;-0.08;100.00
58979;BME280;44763;50.464;30.612;2023-12-14T02:21:39;99475.89;;;-0.13;100.00
58979;BME280;44763;50.464;30.612;2023-12-14T02:23:46;99468.70;;;-0.14;100.00
58979;BME280;44763;50.464;30.612;2023-12-14T02:25:48;99467.40;;;-0.13;100.00
58979;BME280;44763;50.464;30.612;2023-12-14T02:27:51;99459.88;;;-0.11;100.00
58979;BME280;44763;50.464;30.612;2023-12-14T02:29:53;99454.92;;;-0.09;100.00
58979;BME280;44763;50.464;30.612;2023-12-14T02:31:56;99444.55;;;-0.10;100.00
58979;BME280;44763;50.464;30.612;2023-12-14T02:33:58;99469.75;;;-0.14;100.00
58979;BME280;44763;50.464;30.612;2023-12-14T02:36:00;99444.88;;;-0.12;100.00
58979;BME280;44763;50.464;30.612;2023-12-14T02:38:02;99434.55;;;-0.09;100.00
58979;BME280;44763;50.464;30.612;2023-12-14T02:40:05;99440.79;;;-0.09;100.00
58979;BME280;44763;50.464;30.612;2023-12-14T02:42:08;99437.11;;;-0.07;100.00
58979;BME280;44763;50.464;30.612;2023-12-14T02:44:10;99425.52;;;-0.04;100.00
58979;BME280;44763;50.464;30.612;2023-12-14T02:46:12;99437.52;;;-0.02;100.00
58979;BME280;44763;50.464;30.612;2023-12-14T02:48:17;99433.48;;;-0.02;100.00
58979;BME280;44763;50.464;30.612;2023-12-14T02:50:19;99435.63;;;-0.02;100.00
58979;BME280;44763;50.464;30.612;2023-12-14T02:52:22;99431.86;;;-0.03;100.00
58979;BME280;44763;50.464;30.612;2023-12-14T02:54:25;99424.11;;;-0.12;100.00
58979;BME280;44763;50.464;30.612;2023-12-14T02:56:27;99427.70;;;-0.11;100.00
58979;BME280;44763;50.464;30.612;2023-12-14T02:58:29;99422.84;;;-0.09;100.00
58979;BME280;44763;50.464;30.612;2023-12-14T03:00:31;99409.06;;;-0.13;100.00
58979;BME280;44763;50.464;30.612;2023-12-14T03:02:34;99408.40;;;-0.04;100.00
58979;BME280;44763;50.464;30.612;2023-12-14T03:04:39;99413.44;;;-0.02;100.00
58979;BME280;44763;50.464;30.612;2023-12-14T03:06:41;99410.86;;;-0.01;100.00
58979;BME280;44763;50.464;30.612;2023-12-14T03:08:43;99410.37;;;0.01;100.00
58979;BME280;44763;50.464;30.612;2023-12-14T03:10:45;99404.77;;;0.01;100.00
58979;BME280;44763;50.464;30.612;2023-12-14T03:12:47;99399.70;;;-0.01;100.00
58979;BME280;44763;50.464;30.612;2023-12-14T03:14:49;99398.79;;;-0.00;100.00
58979;BME280;44763;50.464;30.612;2023-12-14T03:16:51;99391.48;;;-0.03;100.00
58979;BME280;44763;50.464;30.612;2023-12-14T03:18:58;99383.58;;;-0.02;100.00
58979;BME280;44763;50.464;30.612;2023-12-14T03:21:01;99394.16;;;-0.02;100.00
58979;BME280;44763;50.464;30.612;2023-12-14T03:23:03;99380.62;;;-0.01;100.00
58979;BME280;44763;50.464;30.612;2023-12-14T03:25:05;99383.16;;;0.02;100.00
58979;BME280;44763;50.464;30.612;2023-12-14T03:27:08;99383.18;;;0.06;100.00
58979;BME280;44763;50.464;30.612;2023-12-14T03:29:10;99378.36;;;0.11;100.00
58979;BME280;44763;50.464;30.612;2023-12-14T03:31:13;99371.23;;;0.14;100.00
58979;BME280;44763;50.464;30.612;2023-12-14T03:33:15;99360.58;;;0.14;100.00
58979;BME280;44763;50.464;30.612;2023-12-14T03:35:17;99365.76;;;0.16;100.00
58979;BME280;44763;50.464;30.612;2023-12-14T03:37:19;99361.98;;;0.21;100.00
58979;BME280;44763;50.464;30.612;2023-12-14T03:39:23;99360.73;;;0.26;100.00
58979;BME280;44763;50.464;30.612;2023-12-14T03:41:26;99354.77;;;0.27;100.00
58979;BME280;44763;50.464;30.612;2023-12-14T03:43:28;99362.71;;;0.30;100.00
58979;BME280;44763;50.464;30.612;2023-12-14T03:45:30;99357.13;;;0.32;100.00
58979;BME280;44763;50.464;30.612;2023-12-14T03:47:33;99349.17;;;0.33;100.00
58979;BME280;44763;50.464;30.612;2023-12-14T03:49:38;99359.26;;;0.31;100.00
58979;BME280;44763;50.464;30.612;2023-12-14T03:51:40;99347.17;;;0.30;100.00
58979;BME280;44763;50.464;30.612;2023-12-14T03:53:42;99350.66;;;0.32;100.00
58979;BME280;44763;50.464;30.612;2023-12-14T03:55:44;99355.08;;;0.31;100.00
58979;BME280;44763;50.464;30.612;2023-12-14T03:57:46;99368.23;;;0.33;100.00
58979;BME280;44763;50.464;30.612;2023-12-14T03:59:48;99356.14;;;0.35;100.00
58979;BME280;44763;50.464;30.612;2023-12-14T04:01:50;99336.27;;;0.36;100.00
58979;BME280;44763;50.464;30.612;2023-12-14T04:03:52;99334.34;;;0.36;100.00
58979;BME280;44763;50.464;30.612;2023-12-14T04:05:54;99336.54;;;0.37;100.00
58979;BME280;44763;50.464;30.612;2023-12-14T04:07:56;99339.12;;;0.39;100.00
58979;BME280;44763;50.464;30.612;2023-12-14T04:09:58;99365.80;;;0.42;100.00
58979;BME280;44763;50.464;30.612;2023-12-14T04:12:00;99342.17;;;0.44;100.00
58979;BME280;44763;50.464;30.612;2023-12-14T04:14:02;99335.35;;;0.49;100.00
58979;BME280;44763;50.464;30.612;2023-12-14T04:16:05;99343.01;;;0.53;100.00
58979;BME280;44763;50.464;30.612;2023-12-14T04:18:07;99342.34;;;0.56;100.00
58979;BME280;44763;50.464;30.612;2023-12-14T04:20:10;99329.43;;;0.56;100.00
58979;BME280;44763;50.464;30.612;2023-12-14T04:22:14;99335.53;;;0.44;100.00
58979;BME280;44763;50.464;30.612;2023-12-14T04:24:16;99334.11;;;0.46;100.00
58979;BME280;44763;50.464;30.612;2023-12-14T04:26:18;99343.96;;;0.47;100.00
58979;BME280;44763;50.464;30.612;2023-12-14T04:28:20;99326.75;;;0.46;100.00
58979;BME280;44763;50.464;30.612;2023-12-14T04:30:22;99328.34;;;0.46;100.00
58979;BME280;44763;50.464;30.612;2023-12-14T04:32:25;99325.34;;;0.46;100.00
58979;BME280;44763;50.464;30.612;2023-12-14T04:34:27;99324.76;;;0.36;100.00
58979;BME280;44763;50.464;30.612;2023-12-14T04:36:29;99328.25;;;0.36;100.00
58979;BME280;44763;50.464;30.612;2023-12-14T04:38:31;99332.09;;;0.34;100.00
58979;BME280;44763;50.464;30.612;2023-12-14T04:40:33;99322.40;;;0.33;100.00
58979;BME280;44763;50.464;30.612;2023-12-14T04:42:35;99314.42;;;0.26;100.00
58979;BME280;44763;50.464;30.612;2023-12-14T04:44:38;99311.35;;;0.26;100.00
58979;BME280;44763;50.464;30.612;2023-12-14T04:46:41;99287.27;;;0.17;100.00
58979;BME280;44763;50.464;30.612;2023-12-14T04:48:44;99305.94;;;0.26;100.00
58979;BME280;44763;50.464;30.612;2023-12-14T04:50:46;99305.29;;;0.24;100.00
58979;BME280;44763;50.464;30.612;2023-12-14T04:52:47;99315.05;;;0.22;100.00
58979;BME280;44763;50.464;30.612;2023-12-14T04:54:50;99317.52;;;0.22;100.00
58979;BME280;44763;50.464;30.612;2023-12-14T04:56:52;99312.77;;;0.08;100.00
58979;BME280;44763;50.464;30.612;2023-12-14T04:58:54;99307.39;;;0.06;100.00
58979;BME280;44763;50.464;30.612;2023-12-14T05:00:56;99290.64;;;0.07;100.00
58979;BME280;44763;50.464;30.612;2023-12-14T05:02:58;99296.46;;;0.05;100.00
58979;BME280;44763;50.464;30.612;2023-12-14T05:05:00;99320.95;;;0.04;100.00
58979;BME280;44763;50.464;30.612;2023-12-14T05:07:03;99308.75;;;-0.03;100.00
58979;BME280;44763;50.464;30.612;2023-12-14T05:09:05;99295.56;;;-0.03;100.00
58979;BME280;44763;50.464;30.612;2023-12-14T05:11:08;99283.36;;;-0.03;100.00
58979;BME280;44763;50.464;30.612;2023-12-14T05:13:11;99285.79;;;-0.01;100.00
58979;BME280;44763;50.464;30.612;2023-12-14T05:15:13;99288.95;;;-0.01;100.00
58979;BME280;44763;50.464;30.612;2023-12-14T05:17:16;99280.72;;;-0.04;100.00
58979;BME280;44763;50.464;30.612;2023-12-14T05:19:18;99278.40;;;-0.04;100.00
58979;BME280;44763;50.464;30.612;2023-12-14T05:21:20;99291.17;;;-0.08;100.00
58979;BME280;44763;50.464;30.612;2023-12-14T05:23:23;99300.03;;;-0.13;100.00
58979;BME280;44763;50.464;30.612;2023-12-14T05:25:26;99286.79;;;-0.15;100.00
58979;BME280;44763;50.464;30.612;2023-12-14T05:27:27;99284.77;;;-0.19;100.00
58979;BME280;44763;50.464;30.612;2023-12-14T05:29:29;99276.70;;;-0.19;100.00
58979;BME280;44763;50.464;30.612;2023-12-14T05:31:31;99272.71;;;-0.21;100.00
58979;BME280;44763;50.464;30.612;2023-12-14T05:33:37;99280.45;;;-0.18;100.00
58979;BME280;44763;50.464;30.612;2023-12-14T05:35:39;99256.11;;;-0.17;100.00
58979;BME280;44763;50.464;30.612;2023-12-14T05:37:42;99270.05;;;-0.17;100.00
58979;BME280;44763;50.464;30.612;2023-12-14T05:39:44;99260.28;;;-0.19;100.00
58979;BME280;44763;50.464;30.612;2023-12-14T05:41:47;99277.34;;;-0.24;100.00
58979;BME280;44763;50.464;30.612;2023-12-14T05:43:49;99257.36;;;-0.38;100.00
58979;BME280;44763;50.464;30.612;2023-12-14T05:45:51;99261.88;;;-0.43;100.00
58979;BME280;44763;50.464;30.612;2023-12-14T05:47:53;99249.75;;;-0.44;100.00
58979;BME280;44763;50.464;30.612;2023-12-14T05:49:55;99257.77;;;-0.42;100.00
58979;BME280;44763;50.464;30.612;2023-12-14T05:51:59;99252.30;;;-0.42;100.00
58979;BME280;44763;50.464;30.612;2023-12-14T05:54:02;99264.28;;;-0.47;100.00
58979;BME280;44763;50.464;30.612;2023-12-14T05:56:04;99254.92;;;-0.49;100.00
58979;BME280;44763;50.464;30.612;2023-12-14T05:58:07;99250.75;;;-0.53;100.00
58979;BME280;44763;50.464;30.612;2023-12-14T06:00:10;99240.14;;;-0.51;100.00
58979;BME280;44763;50.464;30.612;2023-12-14T06:02:12;99245.88;;;-0.48;100.00
58979;BME280;44763;50.464;30.612;2023-12-14T06:04:16;99246.70;;;-0.47;100.00
58979;BME280;44763;50.464;30.612;2023-12-14T06:06:18;99246.46;;;-0.48;100.00
58979;BME280;44763;50.464;30.612;2023-12-14T06:08:21;99242.65;;;-0.47;100.00
58979;BME280;44763;50.464;30.612;2023-12-14T06:10:23;99246.27;;;-0.50;100.00
58979;BME280;44763;50.464;30.612;2023-12-14T06:12:25;99240.20;;;-0.48;100.00
58979;BME280;44763;50.464;30.612;2023-12-14T06:14:28;99243.75;;;-0.46;100.00
58979;BME280;44763;50.464;30.612;2023-12-14T06:16:30;99236.42;;;-0.45;100.00
58979;BME280;44763;50.464;30.612;2023-12-14T06:18:32;99246.56;;;-0.44;100.00
58979;BME280;44763;50.464;30.612;2023-12-14T06:20:34;99242.81;;;-0.47;100.00
58979;BME280;44763;50.464;30.612;2023-12-14T06:22:36;99248.89;;;-0.48;100.00
58979;BME280;44763;50.464;30.612;2023-12-14T06:24:39;99229.85;;;-0.50;100.00
58979;BME280;44763;50.464;30.612;2023-12-14T06:26:42;99241.75;;;-0.50;100.00
58979;BME280;44763;50.464;30.612;2023-12-14T06:28:46;99220.29;;;-0.56;100.00
58979;BME280;44763;50.464;30.612;2023-12-14T06:30:49;99228.31;;;-0.45;100.00
58979;BME280;44763;50.464;30.612;2023-12-14T06:32:51;99208.56;;;-0.59;100.00
58979;BME280;44763;50.464;30.612;2023-12-14T06:34:53;99227.79;;;-0.39;100.00
58979;BME280;44763;50.464;30.612;2023-12-14T06:36:55;99221.52;;;-0.35;100.00
58979;BME280;44763;50.464;30.612;2023-12-14T06:39:01;99223.64;;;-0.38;100.00
58979;BME280;44763;50.464;30.612;2023-12-14T06:41:03;99229.27;;;-0.38;100.00
58979;BME280;44763;50.464;30.612;2023-12-14T06:43:05;99217.99;;;-0.37;100.00
58979;BME280;44763;50.464;30.612;2023-12-14T06:45:07;99224.57;;;-0.34;100.00
58979;BME280;44763;50.464;30.612;2023-12-14T06:47:10;99222.63;;;-0.32;100.00
58979;BME280;44763;50.464;30.612;2023-12-14T06:49:12;99215.95;;;-0.30;100.00
58979;BME280;44763;50.464;30.612;2023-12-14T06:51:14;99207.75;;;-0.28;100.00
58979;BME280;44763;50.464;30.612;2023-12-14T06:53:16;99202.91;;;-0.23;100.00
58979;BME280;44763;50.464;30.612;2023-12-14T06:55:18;99210.69;;;-0.21;100.00
58979;BME280;44763;50.464;30.612;2023-12-14T06:57:20;99204.55;;;-0.19;100.00
58979;BME280;44763;50.464;30.612;2023-12-14T06:59:25;99197.38;;;-0.16;100.00
58979;BME280;44763;50.464;30.612;2023-12-14T07:01:27;99215.62;;;-0.25;100.00
58979;BME280;44763;50.464;30.612;2023-12-14T07:03:29;99208.23;;;-0.32;100.00
58979;BME280;44763;50.464;30.612;2023-12-14T07:05:32;99189.52;;;-0.37;100.00
58979;BME280;44763;50.464;30.612;2023-12-14T07:07:35;99208.56;;;-0.26;100.00
58979;BME280;44763;50.464;30.612;2023-12-14T07:09:37;99202.89;;;-0.27;100.00
58979;BME280;44763;50.464;30.612;2023-12-14T07:11:41;99189.38;;;-0.30;100.00
58979;BME280;44763;50.464;30.612;2023-12-14T07:13:43;99189.30;;;-0.31;100.00
58979;BME280;44763;50.464;30.612;2023-12-14T07:15:45;99187.80;;;-0.26;100.00
58979;BME280;44763;50.464;30.612;2023-12-14T07:17:48;99182.81;;;-0.22;100.00
58979;BME280;44763;50.464;30.612;2023-12-14T07:19:51;99180.20;;;-0.16;100.00
58979;BME280;44763;50.464;30.612;2023-12-14T07:21:54;99172.33;;;-0.11;100.00
58979;BME280;44763;50.464;30.612;2023-12-14T07:23:56;99171.92;;;-0.06;100.00
58979;BME280;44763;50.464;30.612;2023-12-14T07:25:58;99176.97;;;-0.04;100.00
58979;BME280;44763;50.464;30.612;2023-12-14T07:28:04;99165.64;;;-0.12;100.00
58979;BME280;44763;50.464;30.612;2023-12-14T07:30:07;99171.52;;;-0.09;100.00
58979;BME280;44763;50.464;30.612;2023-12-14T07:32:11;99165.84;;;-0.05;100.00
58979;BME280;44763;50.464;30.612;2023-12-14T07:34:14;99171.91;;;-0.01;100.00
58979;BME280;44763;50.464;30.612;2023-12-14T07:36:16;99159.91;;;-0.01;100.00
58979;BME280;44763;50.464;30.612;2023-12-14T07:38:18;99168.90;;;-0.02;100.00
58979;BME280;44763;50.464;30.612;2023-12-14T07:40:20;99168.74;;;-0.02;100.00
58979;BME280;44763;50.464;30.612;2023-12-14T07:42:22;99180.16;;;0.01;100.00
58979;BME280;44763;50.464;30.612;2023-12-14T07:44:24;99165.04;;;0.02;100.00
58979;BME280;44763;50.464;30.612;2023-12-14T07:46:27;99164.17;;;0.04;100.00
58979;BME280;44763;50.464;30.612;2023-12-14T07:48:29;99148.66;;;0.03;100.00
58979;BME280;44763;50.464;30.612;2023-12-14T07:50:31;99159.29;;;0.05;100.00
58979;BME280;44763;50.464;30.612;2023-12-14T07:52:33;99150.21;;;0.05;100.00
58979;BME280;44763;50.464;30.612;2023-12-14T07:54:37;99160.02;;;0.07;100.00
58979;BME280;44763;50.464;30.612;2023-12-14T07:56:39;99148.69;;;0.03;100.00
58979;BME280;44763;50.464;30.612;2023-12-14T07:58:41;99154.71;;;0.07;100.00
58979;BME280;44763;50.464;30.612;2023-12-14T08:00:43;99156.30;;;0.13;100.00
58979;BME280;44763;50.464;30.612;2023-12-14T08:02:45;99156.59;;;0.11;100.00
58979;BME280;44763;50.464;30.612;2023-12-14T08:04:47;99149.27;;;0.11;100.00
58979;BME280;44763;50.464;30.612;2023-12-14T08:06:49;99146.79;;;0.12;100.00
58979;BME280;44763;50.464;30.612;2023-12-14T08:08:51;99140.95;;;0.11;100.00
58979;BME280;44763;50.464;30.612;2023-12-14T08:11:59;99145.15;;;0.10;100.00
58979;BME280;44763;50.464;30.612;2023-12-14T08:14:02;99145.94;;;0.11;100.00
58979;BME280;44763;50.464;30.612;2023-12-14T08:16:05;99140.27;;;0.14;100.00
58979;BME280;44763;50.464;30.612;2023-12-14T08:18:08;99138.13;;;0.16;100.00
58979;BME280;44763;50.464;30.612;2023-12-14T08:20:10;99126.72;;;0.18;100.00
58979;BME280;44763;50.464;30.612;2023-12-14T08:22:14;99129.08;;;0.21;100.00
58979;BME280;44763;50.464;30.612;2023-12-14T08:24:17;99130.98;;;0.20;100.00
58979;BME280;44763;50.464;30.612;2023-12-14T08:26:20;99111.23;;;0.24;100.00
58979;BME280;44763;50.464;30.612;2023-12-14T08:28:23;99108.77;;;0.24;100.00
58979;BME280;44763;50.464;30.612;2023-12-14T08:30:25;99105.08;;;0.25;100.00
58979;BME280;44763;50.464;30.612;2023-12-14T08:32:27;99103.70;;;0.20;100.00
58979;BME280;44763;50.464;30.612;2023-12-14T08:34:30;99107.46;;;0.24;100.00
58979;BME280;44763;50.464;30.612;2023-12-14T08:36:32;99088.98;;;0.27;100.00
58979;BME280;44763;50.464;30.612;2023-12-14T08:38:34;99080.53;;;0.33;100.00
58979;BME280;44763;50.464;30.612;2023-12-14T08:40:36;99088.35;;;0.37;100.00
58979;BME280;44763;50.464;30.612;2023-12-14T08:42:38;99082.46;;;0.42;100.00
58979;BME280;44763;50.464;30.612;2023-12-14T08:44:41;99085.79;;;0.40;100.00
58979;BME280;44763;50.464;30.612;2023-12-14T08:46:46;99086.49;;;0.38;100.00
58979;BME280;44763;50.464;30.612;2023-12-14T08:48:49;99072.63;;;0.37;100.00
58979;BME280;44763;50.464;30.612;2023-12-14T08:50:53;99099.81;;;0.33;100.00
58979;BME280;44763;50.464;30.612;2023-12-14T08:52:56;99083.06;;;0.29;100.00
58979;BME280;44763;50.464;30.612;2023-12-14T08:55:00;99074.56;;;0.30;100.00
58979;BME280;44763;50.464;30.612;2023-12-14T08:57:04;99083.57;;;0.27;100.00
58979;BME280;44763;50.464;30.612;2023-12-14T08:59:06;99076.61;;;0.25;100.00
58979;BME280;44763;50.464;30.612;2023-12-14T09:01:09;99080.73;;;0.25;100.00
58979;BME280;44763;50.464;30.612;2023-12-14T09:03:11;99076.64;;;0.25;100.00
58979;BME280;44763;50.464;30.612;2023-12-14T09:05:14;99083.02;;;0.24;100.00
58979;BME280;44763;50.464;30.612;2023-12-14T09:07:18;99076.91;;;0.23;100.00
58979;BME280;44763;50.464;30.612;2023-12-14T09:09:21;99075.66;;;0.22;100.00
58979;BME280;44763;50.464;30.612;2023-12-14T09:11:23;99056.48;;;0.20;100.00
58979;BME280;44763;50.464;30.612;2023-12-14T09:13:25;99050.82;;;0.19;100.00
58979;BME280;44763;50.464;30.612;2023-12-14T09:15:27;99052.92;;;0.17;100.00
58979;BME280;44763;50.464;30.612;2023-12-14T09:17:29;99040.00;;;0.14;100.00
58979;BME280;44763;50.464;30.612;2023-12-14T09:19:38;99046.61;;;0.14;100.00
58979;BME280;44763;50.464;30.612;2023-12-14T09:21:41;99045.77;;;0.14;100.00
58979;BME280;44763;50.464;30.612;2023-12-14T09:23:47;99042.25;;;0.12;100.00
58979;BME280;44763;50.464;30.612;2023-12-14T09:25:49;99045.09;;;0.12;100.00
58979;BME280;44763;50.464;30.612;2023-12-14T09:27:52;99043.21;;;0.13;100.00
58979;BME280;44763;50.464;30.612;2023-12-14T09:29:54;99050.14;;;0.12;100.00
58979;BME280;44763;50.464;30.612;2023-12-14T09:31:56;99027.77;;;0.12;100.00
58979;BME280;44763;50.464;30.612;2023-12-14T09:33:59;99030.98;;;0.17;100.00
58979;BME280;44763;50.464;30.612;2023-12-14T09:36:01;99019.18;;;0.21;100.00
58979;BME280;44763;50.464;30.612;2023-12-14T09:38:04;99031.07;;;0.25;100.00
58979;BME280;44763;50.464;30.612;2023-12-14T09:40:06;99025.96;;;0.27;100.00
58979;BME280;44763;50.464;30.612;2023-12-14T09:42:09;99032.50;;;0.28;100.00
58979;BME280;44763;50.464;30.612;2023-12-14T09:44:12;99029.05;;;0.26;100.00
58979;BME280;44763;50.464;30.612;2023-12-14T09:46:16;99024.48;;;0.27;100.00
58979;BME280;44763;50.464;30.612;2023-12-14T09:48:19;99020.51;;;0.29;100.00
58979;BME280;44763;50.464;30.612;2023-12-14T09:50:23;99006.96;;;0.32;100.00
58979;BME280;44763;50.464;30.612;2023-12-14T09:52:25;99005.13;;;0.31;100.00
58979;BME280;44763;50.464;30.612;2023-12-14T09:54:29;98992.91;;;0.27;100.00
58979;BME280;44763;50.464;30.612;2023-12-14T09:56:31;98998.02;;;0.28;100.00
58979;BME280;44763;50.464;30.612;2023-12-14T09:58:34;98995.34;;;0.28;100.00
58979;BME280;44763;50.464;30.612;2023-12-14T10:00:37;98986.05;;;0.23;100.00
58979;BME280;44763;50.464;30.612;2023-12-14T10:02:41;98983.27;;;0.24;100.00
58979;BME280;44763;50.464;30.612;2023-12-14T10:04:43;98971.45;;;0.23;100.00
58979;BME280;44763;50.464;30.612;2023-12-14T10:06:47;98981.46;;;0.25;100.00
58979;BME280;44763;50.464;30.612;2023-12-14T10:08:55;98979.54;;;0.19;100.00
58979;BME280;44763;50.464;30.612;2023-12-14T10:10:58;98977.79;;;0.23;100.00
58979;BME280;44763;50.464;30.612;2023-12-14T10:13:00;98974.70;;;0.27;100.00
58979;BME280;44763;50.464;30.612;2023-12-14T10:15:02;98979.21;;;0.30;100.00
58979;BME280;44763;50.464;30.612;2023-12-14T10:17:25;98979.98;;;0.31;100.00
58979;BME280;44763;50.464;30.612;2023-12-14T10:19:34;98966.86;;;0.26;100.00
58979;BME280;44763;50.464;30.612;2023-12-14T10:21:37;98977.54;;;0.36;100.00
58979;BME280;44763;50.464;30.612;2023-12-14T10:23:40;98971.13;;;0.39;100.00
58979;BME280;44763;50.464;30.612;2023-12-14T10:25:42;98972.52;;;0.38;100.00
58979;BME280;44763;50.464;30.612;2023-12-14T10:27:48;98974.33;;;0.38;100.00
58979;BME280;44763;50.464;30.612;2023-12-14T10:29:52;98972.20;;;0.38;100.00
58979;BME280;44763;50.464;30.612;2023-12-14T10:31:54;98972.60;;;0.40;100.00
58979;BME280;44763;50.464;30.612;2023-12-14T10:33:57;98956.31;;;0.38;100.00
58979;BME280;44763;50.464;30.612;2023-12-14T10:36:00;98963.83;;;0.40;100.00
58979;BME280;44763;50.464;30.612;2023-12-14T10:38:04;98974.20;;;0.43;100.00